sensor_id;sensor_type;location;lat;lon;timestamp;temperature;humidity
22469;DHT22;11401;50.792;4.352;2022-10-13T00:00:42;19.40;57.80
22469;DHT22;11401;50.792;4.352;2022-10-13T00:03:09;19.40;57.90
22469;DHT22;11401;50.792;4.352;2022-10-13T00:05:42;19.30;57.90
22469;DHT22;11401;50.792;4.352;2022-10-13T00:08:10;19.30;58.00
22469;DHT22;11401;50.792;4.352;2022-10-13T00:10:45;19.30;57.90
22469;DHT22;11401;50.792;4.352;2022-10-13T00:13:13;19.30;58.00
22469;DHT22;11401;50.792;4.352;2022-10-13T00:15:42;19.40;57.90
22469;DHT22;11401;50.792;4.352;2022-10-13T00:18:09;19.30;57.90
22469;DHT22;11401;50.792;4.352;2022-10-13T00:20:44;19.30;57.90
22469;DHT22;11401;50.792;4.352;2022-10-13T00:23:11;19.30;58.10
22469;DHT22;11401;50.792;4.352;2022-10-13T00:25:41;19.30;58.00
22469;DHT22;11401;50.792;4.352;2022-10-13T00:28:08;19.20;58.10
22469;DHT22;11401;50.792;4.352;2022-10-13T00:30:36;19.30;58.10
22469;DHT22;11401;50.792;4.352;2022-10-13T00:33:03;19.30;58.00
22469;DHT22;11401;50.792;4.352;2022-10-13T00:35:31;19.30;58.00
22469;DHT22;11401;50.792;4.352;2022-10-13T00:37:58;19.30;57.90
22469;DHT22;11401;50.792;4.352;2022-10-13T00:40:28;19.30;58.00
22469;DHT22;11401;50.792;4.352;2022-10-13T00:42:55;19.30;57.90
22469;DHT22;11401;50.792;4.352;2022-10-13T00:45:27;19.40;57.80
22469;DHT22;11401;50.792;4.352;2022-10-13T00:47:57;19.40;58.00
22469;DHT22;11401;50.792;4.352;2022-10-13T00:50:31;19.30;57.90
22469;DHT22;11401;50.792;4.352;2022-10-13T00:53:01;19.40;58.10
22469;DHT22;11401;50.792;4.352;2022-10-13T00:55:35;19.30;58.20
22469;DHT22;11401;50.792;4.352;2022-10-13T00:58:05;19.30;58.20
22469;DHT22;11401;50.792;4.352;2022-10-13T01:00:34;19.30;58.30
22469;DHT22;11401;50.792;4.352;2022-10-13T01:04:08;19.30;58.80
22469;DHT22;11401;50.792;4.352;2022-10-13T01:06:35;19.30;58.10
22469;DHT22;11401;50.792;4.352;2022-10-13T01:09:02;19.30;58.20
22469;DHT22;11401;50.792;4.352;2022-10-13T01:22:33;19.30;58.20
22469;DHT22;11401;50.792;4.352;2022-10-13T01:31:25;19.30;58.40
22469;DHT22;11401;50.792;4.352;2022-10-13T01:33:55;19.30;58.20
22469;DHT22;11401;50.792;4.352;2022-10-13T01:39:35;19.30;58.20
22469;DHT22;11401;50.792;4.352;2022-10-13T01:42:11;19.30;58.00
22469;DHT22;11401;50.792;4.352;2022-10-13T01:44:44;19.30;58.10
22469;DHT22;11401;50.792;4.352;2022-10-13T01:47:14;19.30;58.20
22469;DHT22;11401;50.792;4.352;2022-10-13T01:49:43;19.30;58.10
22469;DHT22;11401;50.792;4.352;2022-10-13T01:52:14;19.30;58.20
22469;DHT22;11401;50.792;4.352;2022-10-13T01:54:47;19.30;58.20
22469;DHT22;11401;50.792;4.352;2022-10-13T01:57:31;19.30;58.10
22469;DHT22;11401;50.792;4.352;2022-10-13T02:00:03;19.30;57.90
22469;DHT22;11401;50.792;4.352;2022-10-13T02:03:04;19.30;58.00
22469;DHT22;11401;50.792;4.352;2022-10-13T02:11:19;19.20;58.20
22469;DHT22;11401;50.792;4.352;2022-10-13T02:14:13;19.30;58.20
22469;DHT22;11401;50.792;4.352;2022-10-13T02:16:43;19.30;58.00
22469;DHT22;11401;50.792;4.352;2022-10-13T02:19:14;19.30;58.30
22469;DHT22;11401;50.792;4.352;2022-10-13T02:21:42;19.30;58.30
22469;DHT22;11401;50.792;4.352;2022-10-13T02:24:10;19.20;58.20
22469;DHT22;11401;50.792;4.352;2022-10-13T02:26:37;19.30;58.10
22469;DHT22;11401;50.792;4.352;2022-10-13T02:29:13;19.20;58.10
22469;DHT22;11401;50.792;4.352;2022-10-13T02:31:40;19.30;58.20
22469;DHT22;11401;50.792;4.352;2022-10-13T02:34:08;19.20;58.20
22469;DHT22;11401;50.792;4.352;2022-10-13T02:36:35;19.20;58.10
22469;DHT22;11401;50.792;4.352;2022-10-13T02:39:08;19.20;58.30
22469;DHT22;11401;50.792;4.352;2022-10-13T02:41:35;19.20;58.30
22469;DHT22;11401;50.792;4.352;2022-10-13T02:44:03;19.30;58.20
22469;DHT22;11401;50.792;4.352;2022-10-13T02:46:33;19.30;58.20
22469;DHT22;11401;50.792;4.352;2022-10-13T02:49:00;19.20;58.20
22469;DHT22;11401;50.792;4.352;2022-10-13T02:51:27;19.20;58.20
22469;DHT22;11401;50.792;4.352;2022-10-13T02:53:54;19.20;58.30
22469;DHT22;11401;50.792;4.352;2022-10-13T02:56:21;19.20;58.20
22469;DHT22;11401;50.792;4.352;2022-10-13T02:58:48;19.20;58.30
22469;DHT22;11401;50.792;4.352;2022-10-13T03:01:15;19.20;58.30
22469;DHT22;11401;50.792;4.352;2022-10-13T03:03:42;19.20;58.30
22469;DHT22;11401;50.792;4.352;2022-10-13T03:06:09;19.10;58.90
22469;DHT22;11401;50.792;4.352;2022-10-13T03:08:36;19.20;58.40
22469;DHT22;11401;50.792;4.352;2022-10-13T03:11:02;19.20;58.30
22469;DHT22;11401;50.792;4.352;2022-10-13T03:13:29;19.20;58.20
22469;DHT22;11401;50.792;4.352;2022-10-13T03:16:06;19.20;58.20
22469;DHT22;11401;50.792;4.352;2022-10-13T03:18:33;19.20;58.30
22469;DHT22;11401;50.792;4.352;2022-10-13T03:21:02;19.20;58.30
22469;DHT22;11401;50.792;4.352;2022-10-13T03:23:29;19.10;58.30
22469;DHT22;11401;50.792;4.352;2022-10-13T03:25:57;19.10;58.60
22469;DHT22;11401;50.792;4.352;2022-10-13T03:28:24;19.10;58.50
22469;DHT22;11401;50.792;4.352;2022-10-13T03:31:06;19.10;58.70
22469;DHT22;11401;50.792;4.352;2022-10-13T03:33:42;19.10;58.70
22469;DHT22;11401;50.792;4.352;2022-10-13T03:36:09;19.00;58.90
22469;DHT22;11401;50.792;4.352;2022-10-13T03:38:38;19.10;58.90
22469;DHT22;11401;50.792;4.352;2022-10-13T03:41:10;19.00;59.70
22469;DHT22;11401;50.792;4.352;2022-10-13T03:43:37;19.00;59.40
22469;DHT22;11401;50.792;4.352;2022-10-13T03:46:05;19.00;59.40
22469;DHT22;11401;50.792;4.352;2022-10-13T03:48:34;19.00;59.50
22469;DHT22;11401;50.792;4.352;2022-10-13T03:51:14;19.00;59.30
22469;DHT22;11401;50.792;4.352;2022-10-13T03:53:46;19.00;59.30
22469;DHT22;11401;50.792;4.352;2022-10-13T03:56:19;19.00;59.20
22469;DHT22;11401;50.792;4.352;2022-10-13T03:58:56;19.00;59.20
22469;DHT22;11401;50.792;4.352;2022-10-13T04:01:26;19.00;59.10
22469;DHT22;11401;50.792;4.352;2022-10-13T04:03:55;19.10;59.10
22469;DHT22;11401;50.792;4.352;2022-10-13T04:06:24;19.10;59.00
22469;DHT22;11401;50.792;4.352;2022-10-13T04:08:52;19.10;59.00
22469;DHT22;11401;50.792;4.352;2022-10-13T04:11:20;19.10;59.00
22469;DHT22;11401;50.792;4.352;2022-10-13T04:13:50;19.10;58.90
22469;DHT22;11401;50.792;4.352;2022-10-13T04:16:21;19.10;58.90
22469;DHT22;11401;50.792;4.352;2022-10-13T04:18:54;19.20;58.90
22469;DHT22;11401;50.792;4.352;2022-10-13T04:21:22;19.10;58.80
22469;DHT22;11401;50.792;4.352;2022-10-13T04:23:49;19.10;58.80
22469;DHT22;11401;50.792;4.352;2022-10-13T04:26:19;19.20;58.80
22469;DHT22;11401;50.792;4.352;2022-10-13T04:28:47;19.20;58.80
22469;DHT22;11401;50.792;4.352;2022-10-13T04:31:15;19.20;58.80
22469;DHT22;11401;50.792;4.352;2022-10-13T04:33:42;19.20;58.70
22469;DHT22;11401;50.792;4.352;2022-10-13T04:36:11;19.10;58.80
22469;DHT22;11401;50.792;4.352;2022-10-13T04:38:38;19.20;59.20
22469;DHT22;11401;50.792;4.352;2022-10-13T04:41:07;19.20;59.10
22469;DHT22;11401;50.792;4.352;2022-10-13T04:43:34;19.20;59.00
22469;DHT22;11401;50.792;4.352;2022-10-13T04:46:22;19.20;58.80
22469;DHT22;11401;50.792;4.352;2022-10-13T04:48:49;19.30;58.80
22469;DHT22;11401;50.792;4.352;2022-10-13T04:51:22;19.30;58.90
22469;DHT22;11401;50.792;4.352;2022-10-13T04:53:54;19.20;58.80
22469;DHT22;11401;50.792;4.352;2022-10-13T04:56:22;19.30;58.60
22469;DHT22;11401;50.792;4.352;2022-10-13T04:58:50;19.30;58.40
22469;DHT22;11401;50.792;4.352;2022-10-13T05:01:19;19.30;58.40
22469;DHT22;11401;50.792;4.352;2022-10-13T05:04:06;19.30;58.30
22469;DHT22;11401;50.792;4.352;2022-10-13T05:06:39;19.30;58.30
22469;DHT22;11401;50.792;4.352;2022-10-13T05:09:27;19.30;58.50
22469;DHT22;11401;50.792;4.352;2022-10-13T05:11:54;19.30;58.40
22469;DHT22;11401;50.792;4.352;2022-10-13T05:14:21;19.20;58.60
22469;DHT22;11401;50.792;4.352;2022-10-13T05:16:48;19.10;58.50
22469;DHT22;11401;50.792;4.352;2022-10-13T05:19:15;19.10;58.70
22469;DHT22;11401;50.792;4.352;2022-10-13T05:21:42;19.00;58.90
22469;DHT22;11401;50.792;4.352;2022-10-13T05:24:09;19.00;59.00
22469;DHT22;11401;50.792;4.352;2022-10-13T05:26:39;19.00;59.10
22469;DHT22;11401;50.792;4.352;2022-10-13T05:29:07;19.00;59.20
22469;DHT22;11401;50.792;4.352;2022-10-13T05:31:34;19.00;59.10
22469;DHT22;11401;50.792;4.352;2022-10-13T05:34:02;18.90;59.30
22469;DHT22;11401;50.792;4.352;2022-10-13T05:36:31;18.90;59.60
22469;DHT22;11401;50.792;4.352;2022-10-13T05:39:00;18.90;59.50
22469;DHT22;11401;50.792;4.352;2022-10-13T05:41:29;18.90;59.40
22469;DHT22;11401;50.792;4.352;2022-10-13T05:44:02;19.00;59.20
22469;DHT22;11401;50.792;4.352;2022-10-13T05:46:29;19.00;59.00
22469;DHT22;11401;50.792;4.352;2022-10-13T05:48:56;19.00;59.10
22469;DHT22;11401;50.792;4.352;2022-10-13T05:51:27;18.90;59.20
22469;DHT22;11401;50.792;4.352;2022-10-13T05:54:18;19.00;59.50
22469;DHT22;11401;50.792;4.352;2022-10-13T05:56:53;19.10;59.30
22469;DHT22;11401;50.792;4.352;2022-10-13T05:59:22;19.10;59.60
22469;DHT22;11401;50.792;4.352;2022-10-13T06:01:53;19.10;59.40
22469;DHT22;11401;50.792;4.352;2022-10-13T06:04:29;19.10;59.30
22469;DHT22;11401;50.792;4.352;2022-10-13T06:06:57;19.10;59.20
22469;DHT22;11401;50.792;4.352;2022-10-13T06:09:24;19.20;59.20
22469;DHT22;11401;50.792;4.352;2022-10-13T06:11:52;19.20;59.10
22469;DHT22;11401;50.792;4.352;2022-10-13T06:14:21;19.20;58.80
22469;DHT22;11401;50.792;4.352;2022-10-13T06:16:48;19.30;59.20
22469;DHT22;11401;50.792;4.352;2022-10-13T06:19:14;19.30;58.90
22469;DHT22;11401;50.792;4.352;2022-10-13T06:21:41;19.30;58.80
22469;DHT22;11401;50.792;4.352;2022-10-13T06:24:08;19.30;58.60
22469;DHT22;11401;50.792;4.352;2022-10-13T06:26:35;19.30;58.60
22469;DHT22;11401;50.792;4.352;2022-10-13T06:29:02;19.40;58.90
22469;DHT22;11401;50.792;4.352;2022-10-13T06:31:30;19.40;58.60
22469;DHT22;11401;50.792;4.352;2022-10-13T06:33:58;19.40;58.50
22469;DHT22;11401;50.792;4.352;2022-10-13T06:36:25;19.40;58.60
22469;DHT22;11401;50.792;4.352;2022-10-13T06:38:52;19.50;58.60
22469;DHT22;11401;50.792;4.352;2022-10-13T06:41:20;19.40;58.40
22469;DHT22;11401;50.792;4.352;2022-10-13T06:43:47;19.50;58.50
22469;DHT22;11401;50.792;4.352;2022-10-13T06:46:15;19.50;58.40
22469;DHT22;11401;50.792;4.352;2022-10-13T06:48:42;19.50;58.30
22469;DHT22;11401;50.792;4.352;2022-10-13T06:51:11;19.50;58.50
22469;DHT22;11401;50.792;4.352;2022-10-13T06:53:38;19.40;58.20
22469;DHT22;11401;50.792;4.352;2022-10-13T06:56:06;19.40;58.90
22469;DHT22;11401;50.792;4.352;2022-10-13T06:58:34;19.40;58.30
22469;DHT22;11401;50.792;4.352;2022-10-13T07:01:01;19.40;58.30
22469;DHT22;11401;50.792;4.352;2022-10-13T07:03:28;19.40;58.30
22469;DHT22;11401;50.792;4.352;2022-10-13T07:06:03;19.40;58.30
22469;DHT22;11401;50.792;4.352;2022-10-13T07:08:31;19.50;58.30
22469;DHT22;11401;50.792;4.352;2022-10-13T07:10:58;19.50;59.00
22469;DHT22;11401;50.792;4.352;2022-10-13T07:13:25;19.40;58.50
22469;DHT22;11401;50.792;4.352;2022-10-13T07:15:52;19.40;58.60
22469;DHT22;11401;50.792;4.352;2022-10-13T07:18:19;19.40;58.70
22469;DHT22;11401;50.792;4.352;2022-10-13T07:20:45;19.50;58.80
22469;DHT22;11401;50.792;4.352;2022-10-13T07:23:12;19.50;58.70
22469;DHT22;11401;50.792;4.352;2022-10-13T07:25:39;19.50;58.70
22469;DHT22;11401;50.792;4.352;2022-10-13T07:28:07;19.50;59.00
22469;DHT22;11401;50.792;4.352;2022-10-13T07:30:34;19.50;59.10
22469;DHT22;11401;50.792;4.352;2022-10-13T07:33:01;19.60;59.10
22469;DHT22;11401;50.792;4.352;2022-10-13T07:35:28;19.50;59.20
22469;DHT22;11401;50.792;4.352;2022-10-13T07:37:56;19.50;59.40
22469;DHT22;11401;50.792;4.352;2022-10-13T07:40:23;19.50;59.50
22469;DHT22;11401;50.792;4.352;2022-10-13T07:42:50;19.50;59.50
22469;DHT22;11401;50.792;4.352;2022-10-13T07:45:17;19.50;59.40
22469;DHT22;11401;50.792;4.352;2022-10-13T07:47:44;19.50;59.50
22469;DHT22;11401;50.792;4.352;2022-10-13T07:50:11;19.60;59.30
22469;DHT22;11401;50.792;4.352;2022-10-13T07:52:38;19.50;59.30
22469;DHT22;11401;50.792;4.352;2022-10-13T07:55:09;19.50;59.30
22469;DHT22;11401;50.792;4.352;2022-10-13T07:57:36;19.50;59.40
22469;DHT22;11401;50.792;4.352;2022-10-13T08:00:04;19.50;59.50
22469;DHT22;11401;50.792;4.352;2022-10-13T08:02:38;19.50;59.60
22469;DHT22;11401;50.792;4.352;2022-10-13T08:05:06;19.50;59.80
22469;DHT22;11401;50.792;4.352;2022-10-13T08:07:33;19.50;59.80
22469;DHT22;11401;50.792;4.352;2022-10-13T08:10:00;19.50;59.60
22469;DHT22;11401;50.792;4.352;2022-10-13T08:12:27;19.50;59.80
22469;DHT22;11401;50.792;4.352;2022-10-13T08:14:54;19.50;59.90
22469;DHT22;11401;50.792;4.352;2022-10-13T08:17:20;19.40;59.80
22469;DHT22;11401;50.792;4.352;2022-10-13T08:19:49;19.40;59.60
22469;DHT22;11401;50.792;4.352;2022-10-13T08:22:18;19.50;59.60
22469;DHT22;11401;50.792;4.352;2022-10-13T08:24:48;19.50;59.80
22469;DHT22;11401;50.792;4.352;2022-10-13T08:27:19;19.50;59.80
22469;DHT22;11401;50.792;4.352;2022-10-13T08:29:47;19.50;59.80
22469;DHT22;11401;50.792;4.352;2022-10-13T08:32:14;19.50;59.70
22469;DHT22;11401;50.792;4.352;2022-10-13T08:34:41;19.50;59.60
22469;DHT22;11401;50.792;4.352;2022-10-13T08:37:16;19.60;59.80
22469;DHT22;11401;50.792;4.352;2022-10-13T08:39:44;19.60;59.60
22469;DHT22;11401;50.792;4.352;2022-10-13T08:42:19;19.50;59.60
22469;DHT22;11401;50.792;4.352;2022-10-13T08:44:54;19.60;59.50
22469;DHT22;11401;50.792;4.352;2022-10-13T08:47:54;19.50;59.50
22469;DHT22;11401;50.792;4.352;2022-10-13T08:50:24;19.60;59.70
22469;DHT22;11401;50.792;4.352;2022-10-13T08:53:05;19.60;59.70
22469;DHT22;11401;50.792;4.352;2022-10-13T08:55:42;19.60;59.50
22469;DHT22;11401;50.792;4.352;2022-10-13T08:58:33;19.60;59.60
22469;DHT22;11401;50.792;4.352;2022-10-13T09:03:48;19.60;59.40
22469;DHT22;11401;50.792;4.352;2022-10-13T09:08:58;19.60;59.50
22469;DHT22;11401;50.792;4.352;2022-10-13T09:11:48;19.60;59.50
22469;DHT22;11401;50.792;4.352;2022-10-13T09:14:29;19.60;59.50
22469;DHT22;11401;50.792;4.352;2022-10-13T09:17:13;19.60;59.60
22469;DHT22;11401;50.792;4.352;2022-10-13T09:20:04;19.70;59.50
22469;DHT22;11401;50.792;4.352;2022-10-13T09:22:34;19.70;59.50
22469;DHT22;11401;50.792;4.352;2022-10-13T09:25:07;19.70;59.60
22469;DHT22;11401;50.792;4.352;2022-10-13T09:27:52;19.70;59.50
22469;DHT22;11401;50.792;4.352;2022-10-13T09:30:36;19.70;59.40
22469;DHT22;11401;50.792;4.352;2022-10-13T09:35:35;19.70;59.70
22469;DHT22;11401;50.792;4.352;2022-10-13T09:40:43;19.80;59.90
22469;DHT22;11401;50.792;4.352;2022-10-13T09:43:34;19.70;60.60
22469;DHT22;11401;50.792;4.352;2022-10-13T09:46:10;19.70;59.90
22469;DHT22;11401;50.792;4.352;2022-10-13T09:48:39;19.80;60.00
22469;DHT22;11401;50.792;4.352;2022-10-13T09:51:31;19.80;60.10
22469;DHT22;11401;50.792;4.352;2022-10-13T09:54:04;19.80;60.00
22469;DHT22;11401;50.792;4.352;2022-10-13T09:56:45;19.80;60.30
22469;DHT22;11401;50.792;4.352;2022-10-13T10:01:49;19.80;60.30
22469;DHT22;11401;50.792;4.352;2022-10-13T10:04:22;19.80;60.40
22469;DHT22;11401;50.792;4.352;2022-10-13T10:06:51;19.80;60.40
22469;DHT22;11401;50.792;4.352;2022-10-13T10:09:38;19.80;60.40
22469;DHT22;11401;50.792;4.352;2022-10-13T10:12:10;19.90;60.30
22469;DHT22;11401;50.792;4.352;2022-10-13T10:14:38;19.90;60.40
22469;DHT22;11401;50.792;4.352;2022-10-13T10:23:33;19.90;60.40
22469;DHT22;11401;50.792;4.352;2022-10-13T10:25:43;19.90;60.50
22469;DHT22;11401;50.792;4.352;2022-10-13T10:34:16;19.90;60.80
22469;DHT22;11401;50.792;4.352;2022-10-13T10:37:32;19.90;60.90
22469;DHT22;11401;50.792;4.352;2022-10-13T10:40:31;19.90;60.90
22469;DHT22;11401;50.792;4.352;2022-10-13T10:43:25;19.90;61.30
22469;DHT22;11401;50.792;4.352;2022-10-13T10:45:58;19.90;61.30
22469;DHT22;11401;50.792;4.352;2022-10-13T10:48:35;19.80;62.30
22469;DHT22;11401;50.792;4.352;2022-10-13T10:51:06;19.80;61.80
22469;DHT22;11401;50.792;4.352;2022-10-13T10:53:57;19.80;62.10
22469;DHT22;11401;50.792;4.352;2022-10-13T10:56:36;19.80;62.00
22469;DHT22;11401;50.792;4.352;2022-10-13T10:59:15;19.80;62.10
22469;DHT22;11401;50.792;4.352;2022-10-13T11:04:42;19.80;62.20
22469;DHT22;11401;50.792;4.352;2022-10-13T11:10:17;19.70;62.30
22469;DHT22;11401;50.792;4.352;2022-10-13T11:17:51;19.80;62.60
22469;DHT22;11401;50.792;4.352;2022-10-13T11:25:37;19.80;62.70
22469;DHT22;11401;50.792;4.352;2022-10-13T11:30:49;19.80;62.70
22469;DHT22;11401;50.792;4.352;2022-10-13T11:33:55;19.80;63.00
22469;DHT22;11401;50.792;4.352;2022-10-13T11:39:51;19.80;63.00
22469;DHT22;11401;50.792;4.352;2022-10-13T11:51:29;19.80;63.30
22469;DHT22;11401;50.792;4.352;2022-10-13T11:56:48;19.80;63.30
22469;DHT22;11401;50.792;4.352;2022-10-13T12:01:45;19.80;63.50
22469;DHT22;11401;50.792;4.352;2022-10-13T12:04:14;19.80;63.40
22469;DHT22;11401;50.792;4.352;2022-10-13T12:06:41;19.80;63.40
22469;DHT22;11401;50.792;4.352;2022-10-13T12:09:19;19.90;63.10
22469;DHT22;11401;50.792;4.352;2022-10-13T12:11:54;19.90;62.90
22469;DHT22;11401;50.792;4.352;2022-10-13T12:14:36;19.90;62.90
22469;DHT22;11401;50.792;4.352;2022-10-13T12:19:49;19.90;63.00
22469;DHT22;11401;50.792;4.352;2022-10-13T12:22:16;19.90;63.20
22469;DHT22;11401;50.792;4.352;2022-10-13T12:25:02;19.90;63.00
22469;DHT22;11401;50.792;4.352;2022-10-13T12:27:31;20.00;62.90
22469;DHT22;11401;50.792;4.352;2022-10-13T12:29:59;20.00;62.90
22469;DHT22;11401;50.792;4.352;2022-10-13T12:32:32;20.00;62.80
22469;DHT22;11401;50.792;4.352;2022-10-13T12:35:18;20.00;62.80
22469;DHT22;11401;50.792;4.352;2022-10-13T12:37:46;20.10;62.80
22469;DHT22;11401;50.792;4.352;2022-10-13T12:40:16;20.00;63.00
22469;DHT22;11401;50.792;4.352;2022-10-13T12:42:44;20.00;63.00
22469;DHT22;11401;50.792;4.352;2022-10-13T12:45:20;20.00;63.10
22469;DHT22;11401;50.792;4.352;2022-10-13T12:47:52;20.00;63.10
22469;DHT22;11401;50.792;4.352;2022-10-13T12:55:35;20.10;63.00
22469;DHT22;11401;50.792;4.352;2022-10-13T12:58:03;20.00;63.00
22469;DHT22;11401;50.792;4.352;2022-10-13T13:00:30;20.10;62.90
22469;DHT22;11401;50.792;4.352;2022-10-13T13:03:00;20.00;62.80
22469;DHT22;11401;50.792;4.352;2022-10-13T13:05:34;20.10;62.80
22469;DHT22;11401;50.792;4.352;2022-10-13T13:08:26;20.10;62.80
22469;DHT22;11401;50.792;4.352;2022-10-13T13:10:57;20.00;63.00
22469;DHT22;11401;50.792;4.352;2022-10-13T13:13:26;20.00;63.10
22469;DHT22;11401;50.792;4.352;2022-10-13T13:15:53;20.00;63.30
22469;DHT22;11401;50.792;4.352;2022-10-13T13:18:39;20.00;63.30
22469;DHT22;11401;50.792;4.352;2022-10-13T13:21:11;20.00;63.30
22469;DHT22;11401;50.792;4.352;2022-10-13T13:23:41;20.00;63.40
22469;DHT22;11401;50.792;4.352;2022-10-13T13:26:12;20.00;63.50
22469;DHT22;11401;50.792;4.352;2022-10-13T13:29:04;20.00;63.50
22469;DHT22;11401;50.792;4.352;2022-10-13T13:31:31;20.00;63.60
22469;DHT22;11401;50.792;4.352;2022-10-13T13:33:58;19.90;63.60
22469;DHT22;11401;50.792;4.352;2022-10-13T13:36:25;19.90;63.50
22469;DHT22;11401;50.792;4.352;2022-10-13T13:38:53;19.90;63.60
22469;DHT22;11401;50.792;4.352;2022-10-13T13:41:21;19.90;63.50
22469;DHT22;11401;50.792;4.352;2022-10-13T13:43:48;19.90;63.60
22469;DHT22;11401;50.792;4.352;2022-10-13T13:46:18;19.90;63.60
22469;DHT22;11401;50.792;4.352;2022-10-13T13:48:46;19.90;63.70
22469;DHT22;11401;50.792;4.352;2022-10-13T13:51:13;19.90;63.80
22469;DHT22;11401;50.792;4.352;2022-10-13T13:53:40;19.90;63.80
22469;DHT22;11401;50.792;4.352;2022-10-13T13:56:12;19.90;63.90
22469;DHT22;11401;50.792;4.352;2022-10-13T13:58:39;19.90;64.00
22469;DHT22;11401;50.792;4.352;2022-10-13T14:01:06;19.90;64.00
22469;DHT22;11401;50.792;4.352;2022-10-13T14:03:34;19.90;64.10
22469;DHT22;11401;50.792;4.352;2022-10-13T14:06:03;19.90;64.10
22469;DHT22;11401;50.792;4.352;2022-10-13T14:08:34;19.90;64.00
22469;DHT22;11401;50.792;4.352;2022-10-13T14:11:08;19.90;63.80
22469;DHT22;11401;50.792;4.352;2022-10-13T14:13:35;19.90;63.70
22469;DHT22;11401;50.792;4.352;2022-10-13T14:16:03;19.90;63.70
22469;DHT22;11401;50.792;4.352;2022-10-13T14:18:30;19.90;63.70
22469;DHT22;11401;50.792;4.352;2022-10-13T14:20:57;20.00;63.70
22469;DHT22;11401;50.792;4.352;2022-10-13T14:23:24;20.00;63.60
22469;DHT22;11401;50.792;4.352;2022-10-13T14:25:51;20.00;63.60
22469;DHT22;11401;50.792;4.352;2022-10-13T14:28:19;20.00;64.30
22469;DHT22;11401;50.792;4.352;2022-10-13T14:30:46;20.00;63.40
22469;DHT22;11401;50.792;4.352;2022-10-13T14:33:13;20.10;63.40
22469;DHT22;11401;50.792;4.352;2022-10-13T14:35:44;20.00;63.30
22469;DHT22;11401;50.792;4.352;2022-10-13T14:38:15;20.00;63.30
22469;DHT22;11401;50.792;4.352;2022-10-13T14:40:43;20.10;63.20
22469;DHT22;11401;50.792;4.352;2022-10-13T14:43:09;20.10;63.00
22469;DHT22;11401;50.792;4.352;2022-10-13T14:45:36;20.10;62.80
22469;DHT22;11401;50.792;4.352;2022-10-13T14:48:04;20.10;62.90
22469;DHT22;11401;50.792;4.352;2022-10-13T14:50:33;20.10;62.80
22469;DHT22;11401;50.792;4.352;2022-10-13T14:52:59;20.10;62.80
22469;DHT22;11401;50.792;4.352;2022-10-13T14:55:27;20.00;62.70
22469;DHT22;11401;50.792;4.352;2022-10-13T14:57:54;20.00;62.80
22469;DHT22;11401;50.792;4.352;2022-10-13T15:00:21;20.00;62.60
22469;DHT22;11401;50.792;4.352;2022-10-13T15:02:47;20.00;62.60
22469;DHT22;11401;50.792;4.352;2022-10-13T15:05:15;20.00;62.70
22469;DHT22;11401;50.792;4.352;2022-10-13T15:07:42;20.00;62.80
22469;DHT22;11401;50.792;4.352;2022-10-13T15:10:09;20.00;62.80
22469;DHT22;11401;50.792;4.352;2022-10-13T15:12:35;20.00;62.70
22469;DHT22;11401;50.792;4.352;2022-10-13T15:15:03;20.00;62.80
22469;DHT22;11401;50.792;4.352;2022-10-13T15:17:30;20.00;62.70
22469;DHT22;11401;50.792;4.352;2022-10-13T15:19:59;20.00;62.60
22469;DHT22;11401;50.792;4.352;2022-10-13T15:22:26;20.00;62.60
22469;DHT22;11401;50.792;4.352;2022-10-13T15:24:53;20.00;62.50
22469;DHT22;11401;50.792;4.352;2022-10-13T15:27:20;20.00;62.50
22469;DHT22;11401;50.792;4.352;2022-10-13T15:29:46;20.00;62.50
22469;DHT22;11401;50.792;4.352;2022-10-13T15:32:15;20.00;62.40
22469;DHT22;11401;50.792;4.352;2022-10-13T15:34:49;20.00;62.50
22469;DHT22;11401;50.792;4.352;2022-10-13T15:37:16;20.00;62.60
22469;DHT22;11401;50.792;4.352;2022-10-13T15:39:43;20.00;62.60
22469;DHT22;11401;50.792;4.352;2022-10-13T15:42:10;20.00;62.50
22469;DHT22;11401;50.792;4.352;2022-10-13T15:44:37;20.00;62.60
22469;DHT22;11401;50.792;4.352;2022-10-13T15:47:24;20.00;62.60
22469;DHT22;11401;50.792;4.352;2022-10-13T15:49:51;20.00;62.50
22469;DHT22;11401;50.792;4.352;2022-10-13T15:52:18;20.00;62.50
22469;DHT22;11401;50.792;4.352;2022-10-13T15:54:46;20.00;62.40
22469;DHT22;11401;50.792;4.352;2022-10-13T15:57:17;20.00;62.40
22469;DHT22;11401;50.792;4.352;2022-10-13T15:59:44;19.90;62.40
22469;DHT22;11401;50.792;4.352;2022-10-13T16:02:10;19.90;62.40
22469;DHT22;11401;50.792;4.352;2022-10-13T16:04:37;20.00;63.20
22469;DHT22;11401;50.792;4.352;2022-10-13T16:07:04;20.00;62.30
22469;DHT22;11401;50.792;4.352;2022-10-13T16:09:31;20.00;62.40
22469;DHT22;11401;50.792;4.352;2022-10-13T16:11:58;20.00;62.30
22469;DHT22;11401;50.792;4.352;2022-10-13T16:14:25;19.90;62.40
22469;DHT22;11401;50.792;4.352;2022-10-13T16:16:52;20.00;62.50
22469;DHT22;11401;50.792;4.352;2022-10-13T16:19:19;20.00;62.40
22469;DHT22;11401;50.792;4.352;2022-10-13T16:21:47;20.00;62.50
22469;DHT22;11401;50.792;4.352;2022-10-13T16:24:14;20.00;62.50
22469;DHT22;11401;50.792;4.352;2022-10-13T16:26:41;20.00;62.40
22469;DHT22;11401;50.792;4.352;2022-10-13T16:29:08;20.00;62.40
22469;DHT22;11401;50.792;4.352;2022-10-13T16:31:35;19.90;62.30
22469;DHT22;11401;50.792;4.352;2022-10-13T16:34:02;19.90;62.30
22469;DHT22;11401;50.792;4.352;2022-10-13T16:36:29;19.90;62.60
22469;DHT22;11401;50.792;4.352;2022-10-13T16:38:55;19.90;62.70
22469;DHT22;11401;50.792;4.352;2022-10-13T16:41:23;19.90;62.80
22469;DHT22;11401;50.792;4.352;2022-10-13T16:43:49;19.90;62.90
22469;DHT22;11401;50.792;4.352;2022-10-13T16:46:18;19.90;62.90
22469;DHT22;11401;50.792;4.352;2022-10-13T16:48:46;19.90;62.90
22469;DHT22;11401;50.792;4.352;2022-10-13T16:51:20;20.00;62.90
22469;DHT22;11401;50.792;4.352;2022-10-13T16:53:51;20.00;62.90
22469;DHT22;11401;50.792;4.352;2022-10-13T16:56:20;20.00;62.90
22469;DHT22;11401;50.792;4.352;2022-10-13T16:58:49;20.00;63.00
22469;DHT22;11401;50.792;4.352;2022-10-13T17:01:17;20.00;63.00
22469;DHT22;11401;50.792;4.352;2022-10-13T17:03:44;20.00;63.00
22469;DHT22;11401;50.792;4.352;2022-10-13T17:06:13;20.00;62.90
22469;DHT22;11401;50.792;4.352;2022-10-13T17:08:41;20.00;62.90
22469;DHT22;11401;50.792;4.352;2022-10-13T17:11:10;20.00;62.80
22469;DHT22;11401;50.792;4.352;2022-10-13T17:13:40;20.00;62.90
22469;DHT22;11401;50.792;4.352;2022-10-13T17:16:08;20.00;63.70
22469;DHT22;11401;50.792;4.352;2022-10-13T17:18:36;20.00;62.90
22469;DHT22;11401;50.792;4.352;2022-10-13T17:21:05;20.00;62.90
22469;DHT22;11401;50.792;4.352;2022-10-13T17:23:35;20.00;62.90
22469;DHT22;11401;50.792;4.352;2022-10-13T17:26:05;20.00;62.90
22469;DHT22;11401;50.792;4.352;2022-10-13T17:28:32;20.00;62.90